sensor_id;sensor_type;location;lat;lon;timestamp;P1;durP1;ratioP1;P2;durP2;ratioP2
60308;SDS011;50313;52.894;6.492;2023-04-07T00:02:32;10.43;;;5.80;;
60308;SDS011;50313;52.894;6.492;2023-04-07T00:04:58;10.60;;;6.32;;
60308;SDS011;50313;52.894;6.492;2023-04-07T00:07:33;9.90;;;5.85;;
60308;SDS011;50313;52.894;6.492;2023-04-07T00:10:02;11.77;;;6.30;;
60308;SDS011;50313;52.894;6.492;2023-04-07T00:12:38;12.40;;;5.60;;
60308;SDS011;50313;52.894;6.492;2023-04-07T00:15:10;10.02;;;5.80;;
60308;SDS011;50313;52.894;6.492;2023-04-07T00:17:51;11.20;;;7.10;;
60308;SDS011;50313;52.894;6.492;2023-04-07T00:20:23;8.38;;;5.43;;
60308;SDS011;50313;52.894;6.492;2023-04-07T00:23:08;9.57;;;5.78;;
60308;SDS011;50313;52.894;6.492;2023-04-07T00:25:37;8.02;;;5.30;;
60308;SDS011;50313;52.894;6.492;2023-04-07T00:28:10;10.50;;;5.72;;
60308;SDS011;50313;52.894;6.492;2023-04-07T00:30:47;9.45;;;5.70;;
60308;SDS011;50313;52.894;6.492;2023-04-07T00:33:41;11.70;;;5.68;;
60308;SDS011;50313;52.894;6.492;2023-04-07T00:36:12;10.07;;;5.70;;
60308;SDS011;50313;52.894;6.492;2023-04-07T00:38:45;9.20;;;6.25;;
60308;SDS011;50313;52.894;6.492;2023-04-07T00:41:13;9.35;;;5.43;;
60308;SDS011;50313;52.894;6.492;2023-04-07T00:43:42;8.23;;;5.32;;
60308;SDS011;50313;52.894;6.492;2023-04-07T00:46:08;10.48;;;5.80;;
60308;SDS011;50313;52.894;6.492;2023-04-07T00:48:37;7.55;;;4.80;;
60308;SDS011;50313;52.894;6.492;2023-04-07T00:51:20;9.20;;;5.30;;
60308;SDS011;50313;52.894;6.492;2023-04-07T00:53:54;8.98;;;5.53;;
60308;SDS011;50313;52.894;6.492;2023-04-07T00:56:26;10.27;;;5.90;;
60308;SDS011;50313;52.894;6.492;2023-04-07T00:59:08;11.30;;;6.03;;
60308;SDS011;50313;52.894;6.492;2023-04-07T01:02:04;10.48;;;5.90;;
60308;SDS011;50313;52.894;6.492;2023-04-07T01:07:54;11.40;;;5.75;;
60308;SDS011;50313;52.894;6.492;2023-04-07T01:10:27;9.23;;;6.07;;
60308;SDS011;50313;52.894;6.492;2023-04-07T01:13:37;8.87;;;5.23;;
60308;SDS011;50313;52.894;6.492;2023-04-07T01:16:23;9.18;;;5.57;;
60308;SDS011;50313;52.894;6.492;2023-04-07T01:19:29;8.40;;;5.30;;
60308;SDS011;50313;52.894;6.492;2023-04-07T01:22:23;7.90;;;4.60;;
60308;SDS011;50313;52.894;6.492;2023-04-07T01:28:30;7.57;;;4.80;;
60308;SDS011;50313;52.894;6.492;2023-04-07T01:31:19;9.53;;;5.17;;
60308;SDS011;50313;52.894;6.492;2023-04-07T01:33:47;8.40;;;5.67;;
60308;SDS011;50313;52.894;6.492;2023-04-07T01:36:20;9.65;;;5.18;;
60308;SDS011;50313;52.894;6.492;2023-04-07T01:38:49;11.27;;;5.45;;
60308;SDS011;50313;52.894;6.492;2023-04-07T01:41:29;10.07;;;5.20;;
60308;SDS011;50313;52.894;6.492;2023-04-07T01:44:05;8.88;;;4.78;;
60308;SDS011;50313;52.894;6.492;2023-04-07T01:46:50;8.90;;;5.28;;
60308;SDS011;50313;52.894;6.492;2023-04-07T01:49:22;7.93;;;4.45;;
60308;SDS011;50313;52.894;6.492;2023-04-07T01:51:55;9.07;;;4.75;;
60308;SDS011;50313;52.894;6.492;2023-04-07T01:54:27;7.20;;;5.10;;
60308;SDS011;50313;52.894;6.492;2023-04-07T01:57:06;7.07;;;4.95;;
60308;SDS011;50313;52.894;6.492;2023-04-07T01:59:35;7.63;;;4.60;;
60308;SDS011;50313;52.894;6.492;2023-04-07T02:02:14;7.45;;;4.47;;
60308;SDS011;50313;52.894;6.492;2023-04-07T02:04:51;8.25;;;4.90;;
60308;SDS011;50313;52.894;6.492;2023-04-07T02:07:49;8.40;;;4.73;;
60308;SDS011;50313;52.894;6.492;2023-04-07T02:10:36;7.75;;;4.90;;
60308;SDS011;50313;52.894;6.492;2023-04-07T02:13:15;7.07;;;4.18;;
60308;SDS011;50313;52.894;6.492;2023-04-07T02:15:44;8.05;;;4.82;;
60308;SDS011;50313;52.894;6.492;2023-04-07T02:18:14;6.45;;;4.45;;
60308;SDS011;50313;52.894;6.492;2023-04-07T02:20:44;7.18;;;4.78;;
60308;SDS011;50313;52.894;6.492;2023-04-07T02:23:21;8.13;;;5.22;;
60308;SDS011;50313;52.894;6.492;2023-04-07T02:25:54;5.78;;;4.40;;
60308;SDS011;50313;52.894;6.492;2023-04-07T02:28:23;6.35;;;4.47;;
60308;SDS011;50313;52.894;6.492;2023-04-07T02:30:51;8.37;;;4.83;;
60308;SDS011;50313;52.894;6.492;2023-04-07T02:33:22;7.25;;;4.38;;
60308;SDS011;50313;52.894;6.492;2023-04-07T02:36:12;6.82;;;4.93;;
60308;SDS011;50313;52.894;6.492;2023-04-07T02:39:08;7.63;;;4.15;;
60308;SDS011;50313;52.894;6.492;2023-04-07T02:41:37;5.07;;;3.75;;
60308;SDS011;50313;52.894;6.492;2023-04-07T02:44:14;4.43;;;3.45;;
60308;SDS011;50313;52.894;6.492;2023-04-07T02:46:42;7.23;;;4.50;;
60308;SDS011;50313;52.894;6.492;2023-04-07T02:49:20;5.35;;;3.35;;
60308;SDS011;50313;52.894;6.492;2023-04-07T02:51:49;8.02;;;4.03;;
60308;SDS011;50313;52.894;6.492;2023-04-07T02:54:15;5.85;;;3.63;;
60308;SDS011;50313;52.894;6.492;2023-04-07T02:56:43;6.20;;;4.18;;
60308;SDS011;50313;52.894;6.492;2023-04-07T02:59:14;5.50;;;4.03;;
60308;SDS011;50313;52.894;6.492;2023-04-07T03:01:42;5.10;;;3.70;;
60308;SDS011;50313;52.894;6.492;2023-04-07T03:04:07;8.33;;;4.47;;
60308;SDS011;50313;52.894;6.492;2023-04-07T03:06:36;7.17;;;3.90;;
60308;SDS011;50313;52.894;6.492;2023-04-07T03:09:04;4.90;;;3.13;;
60308;SDS011;50313;52.894;6.492;2023-04-07T03:11:32;5.00;;;3.13;;
60308;SDS011;50313;52.894;6.492;2023-04-07T03:14:00;6.35;;;4.32;;
60308;SDS011;50313;52.894;6.492;2023-04-07T03:16:29;5.88;;;3.08;;
60308;SDS011;50313;52.894;6.492;2023-04-07T03:19:00;5.97;;;3.95;;
60308;SDS011;50313;52.894;6.492;2023-04-07T03:21:47;4.50;;;3.70;;
60308;SDS011;50313;52.894;6.492;2023-04-07T03:24:18;4.55;;;3.50;;
60308;SDS011;50313;52.894;6.492;2023-04-07T03:26:51;5.90;;;3.92;;
60308;SDS011;50313;52.894;6.492;2023-04-07T03:29:29;5.68;;;3.95;;
60308;SDS011;50313;52.894;6.492;2023-04-07T03:31:57;7.03;;;3.83;;
60308;SDS011;50313;52.894;6.492;2023-04-07T03:34:26;7.03;;;3.97;;
60308;SDS011;50313;52.894;6.492;2023-04-07T03:36:54;6.50;;;4.10;;
60308;SDS011;50313;52.894;6.492;2023-04-07T03:39:22;5.60;;;3.85;;
60308;SDS011;50313;52.894;6.492;2023-04-07T03:41:50;9.13;;;4.93;;
60308;SDS011;50313;52.894;6.492;2023-04-07T03:44:18;7.80;;;3.77;;
60308;SDS011;50313;52.894;6.492;2023-04-07T03:46:50;6.50;;;4.22;;
60308;SDS011;50313;52.894;6.492;2023-04-07T03:49:25;7.85;;;4.72;;
60308;SDS011;50313;52.894;6.492;2023-04-07T03:52:00;4.30;;;3.35;;
60308;SDS011;50313;52.894;6.492;2023-04-07T03:54:26;6.80;;;5.10;;
60308;SDS011;50313;52.894;6.492;2023-04-07T03:57:02;7.63;;;4.67;;
60308;SDS011;50313;52.894;6.492;2023-04-07T03:59:38;5.70;;;4.00;;
60308;SDS011;50313;52.894;6.492;2023-04-07T04:05:27;7.43;;;4.38;;
60308;SDS011;50313;52.894;6.492;2023-04-07T04:07:57;6.82;;;3.60;;
60308;SDS011;50313;52.894;6.492;2023-04-07T04:10:26;7.33;;;4.27;;
60308;SDS011;50313;52.894;6.492;2023-04-07T04:12:55;6.90;;;4.45;;
60308;SDS011;50313;52.894;6.492;2023-04-07T04:15:30;7.40;;;4.35;;
60308;SDS011;50313;52.894;6.492;2023-04-07T04:18:01;6.18;;;4.32;;
60308;SDS011;50313;52.894;6.492;2023-04-07T04:20:30;5.82;;;3.78;;
60308;SDS011;50313;52.894;6.492;2023-04-07T04:22:56;8.68;;;4.45;;
60308;SDS011;50313;52.894;6.492;2023-04-07T04:25:22;5.97;;;4.43;;
60308;SDS011;50313;52.894;6.492;2023-04-07T04:27:50;8.93;;;4.97;;
60308;SDS011;50313;52.894;6.492;2023-04-07T04:30:25;9.77;;;5.47;;
60308;SDS011;50313;52.894;6.492;2023-04-07T04:32:53;7.23;;;4.40;;
60308;SDS011;50313;52.894;6.492;2023-04-07T04:35:24;6.97;;;4.88;;
60308;SDS011;50313;52.894;6.492;2023-04-07T04:37:54;7.37;;;4.60;;
60308;SDS011;50313;52.894;6.492;2023-04-07T04:40:28;9.05;;;3.92;;
60308;SDS011;50313;52.894;6.492;2023-04-07T04:42:54;8.25;;;4.03;;
60308;SDS011;50313;52.894;6.492;2023-04-07T04:45:22;7.97;;;4.72;;
60308;SDS011;50313;52.894;6.492;2023-04-07T04:47:48;7.15;;;4.43;;
60308;SDS011;50313;52.894;6.492;2023-04-07T04:50:14;9.32;;;3.95;;
60308;SDS011;50313;52.894;6.492;2023-04-07T04:52:40;6.07;;;4.10;;
60308;SDS011;50313;52.894;6.492;2023-04-07T04:55:09;8.67;;;3.83;;
60308;SDS011;50313;52.894;6.492;2023-04-07T04:57:40;5.35;;;3.47;;
60308;SDS011;50313;52.894;6.492;2023-04-07T05:00:06;5.37;;;3.50;;
60308;SDS011;50313;52.894;6.492;2023-04-07T05:02:47;7.70;;;4.75;;
60308;SDS011;50313;52.894;6.492;2023-04-07T05:05:13;6.45;;;4.07;;
60308;SDS011;50313;52.894;6.492;2023-04-07T05:07:39;6.63;;;4.25;;
60308;SDS011;50313;52.894;6.492;2023-04-07T05:10:07;8.93;;;4.18;;
60308;SDS011;50313;52.894;6.492;2023-04-07T05:12:46;5.25;;;3.63;;
60308;SDS011;50313;52.894;6.492;2023-04-07T05:15:18;7.30;;;4.15;;
60308;SDS011;50313;52.894;6.492;2023-04-07T05:17:44;5.50;;;4.05;;
60308;SDS011;50313;52.894;6.492;2023-04-07T05:20:32;7.38;;;4.25;;
60308;SDS011;50313;52.894;6.492;2023-04-07T05:22:57;6.38;;;3.97;;
60308;SDS011;50313;52.894;6.492;2023-04-07T05:25:28;5.78;;;3.95;;
60308;SDS011;50313;52.894;6.492;2023-04-07T05:27:54;7.50;;;4.20;;
60308;SDS011;50313;52.894;6.492;2023-04-07T05:30:26;7.50;;;4.50;;
60308;SDS011;50313;52.894;6.492;2023-04-07T05:32:57;11.10;;;4.85;;
60308;SDS011;50313;52.894;6.492;2023-04-07T05:35:25;5.70;;;3.72;;
60308;SDS011;50313;52.894;6.492;2023-04-07T05:37:53;6.53;;;4.75;;
60308;SDS011;50313;52.894;6.492;2023-04-07T05:40:40;5.80;;;4.07;;
60308;SDS011;50313;52.894;6.492;2023-04-07T05:43:06;6.30;;;4.50;;
60308;SDS011;50313;52.894;6.492;2023-04-07T05:45:34;5.90;;;3.95;;
60308;SDS011;50313;52.894;6.492;2023-04-07T05:48:03;7.95;;;4.18;;
60308;SDS011;50313;52.894;6.492;2023-04-07T05:50:29;8.27;;;4.07;;
60308;SDS011;50313;52.894;6.492;2023-04-07T05:52:57;8.48;;;4.63;;
60308;SDS011;50313;52.894;6.492;2023-04-07T05:55:35;7.43;;;4.70;;
60308;SDS011;50313;52.894;6.492;2023-04-07T05:58:01;6.78;;;4.03;;
60308;SDS011;50313;52.894;6.492;2023-04-07T06:00:26;7.17;;;4.27;;
60308;SDS011;50313;52.894;6.492;2023-04-07T06:02:55;7.73;;;4.50;;
60308;SDS011;50313;52.894;6.492;2023-04-07T06:05:23;6.80;;;4.27;;
60308;SDS011;50313;52.894;6.492;2023-04-07T06:07:59;8.60;;;4.18;;
60308;SDS011;50313;52.894;6.492;2023-04-07T06:10:34;6.88;;;4.22;;
60308;SDS011;50313;52.894;6.492;2023-04-07T06:13:02;9.75;;;4.45;;
60308;SDS011;50313;52.894;6.492;2023-04-07T06:15:48;8.80;;;4.65;;
60308;SDS011;50313;52.894;6.492;2023-04-07T06:18:18;7.30;;;4.38;;
60308;SDS011;50313;52.894;6.492;2023-04-07T06:20:49;7.50;;;4.15;;
60308;SDS011;50313;52.894;6.492;2023-04-07T06:23:18;9.85;;;4.60;;
60308;SDS011;50313;52.894;6.492;2023-04-07T06:25:46;7.55;;;4.13;;
60308;SDS011;50313;52.894;6.492;2023-04-07T06:28:19;7.97;;;4.80;;
60308;SDS011;50313;52.894;6.492;2023-04-07T06:30:56;8.57;;;4.63;;
60308;SDS011;50313;52.894;6.492;2023-04-07T06:33:32;9.50;;;4.67;;
60308;SDS011;50313;52.894;6.492;2023-04-07T06:36:09;9.13;;;5.25;;
60308;SDS011;50313;52.894;6.492;2023-04-07T06:38:38;11.05;;;6.65;;
60308;SDS011;50313;52.894;6.492;2023-04-07T06:41:04;7.68;;;4.43;;
60308;SDS011;50313;52.894;6.492;2023-04-07T06:43:32;8.32;;;5.35;;
60308;SDS011;50313;52.894;6.492;2023-04-07T06:46:08;10.20;;;4.68;;
60308;SDS011;50313;52.894;6.492;2023-04-07T06:48:49;7.88;;;4.40;;
60308;SDS011;50313;52.894;6.492;2023-04-07T06:51:17;5.82;;;4.50;;
60308;SDS011;50313;52.894;6.492;2023-04-07T06:53:46;9.52;;;3.75;;
60308;SDS011;50313;52.894;6.492;2023-04-07T06:56:34;9.70;;;4.85;;
60308;SDS011;50313;52.894;6.492;2023-04-07T06:59:09;9.50;;;5.72;;
60308;SDS011;50313;52.894;6.492;2023-04-07T07:01:40;8.15;;;4.70;;
60308;SDS011;50313;52.894;6.492;2023-04-07T07:04:10;7.57;;;4.25;;
60308;SDS011;50313;52.894;6.492;2023-04-07T07:06:39;8.65;;;4.82;;
60308;SDS011;50313;52.894;6.492;2023-04-07T07:09:08;9.52;;;5.07;;
60308;SDS011;50313;52.894;6.492;2023-04-07T07:11:54;8.45;;;5.45;;
60308;SDS011;50313;52.894;6.492;2023-04-07T07:15:00;9.95;;;5.45;;
60308;SDS011;50313;52.894;6.492;2023-04-07T07:20:40;10.40;;;5.25;;
60308;SDS011;50313;52.894;6.492;2023-04-07T07:23:11;10.45;;;5.72;;
60308;SDS011;50313;52.894;6.492;2023-04-07T07:25:39;9.38;;;4.38;;
60308;SDS011;50313;52.894;6.492;2023-04-07T07:28:05;10.07;;;5.57;;
60308;SDS011;50313;52.894;6.492;2023-04-07T07:30:37;8.73;;;4.93;;
60308;SDS011;50313;52.894;6.492;2023-04-07T07:33:06;8.90;;;5.25;;
60308;SDS011;50313;52.894;6.492;2023-04-07T07:35:35;8.55;;;5.20;;
60308;SDS011;50313;52.894;6.492;2023-04-07T07:38:10;10.53;;;4.43;;
60308;SDS011;50313;52.894;6.492;2023-04-07T07:40:41;10.15;;;4.97;;
60308;SDS011;50313;52.894;6.492;2023-04-07T07:43:07;9.47;;;5.40;;
60308;SDS011;50313;52.894;6.492;2023-04-07T07:45:50;10.65;;;5.55;;
60308;SDS011;50313;52.894;6.492;2023-04-07T07:48:26;9.95;;;5.35;;
60308;SDS011;50313;52.894;6.492;2023-04-07T07:51:01;10.95;;;5.53;;
60308;SDS011;50313;52.894;6.492;2023-04-07T07:53:58;11.20;;;5.40;;
60308;SDS011;50313;52.894;6.492;2023-04-07T07:56:36;9.18;;;5.40;;
60308;SDS011;50313;52.894;6.492;2023-04-07T07:59:15;5.32;;;2.95;;
60308;SDS011;50313;52.894;6.492;2023-04-07T09:36:44;1.67;;;1.60;;
60308;SDS011;50313;52.894;6.492;2023-04-07T09:42:28;3.47;;;2.58;;
60308;SDS011;50313;52.894;6.492;2023-04-07T11:09:02;0.75;;;0.75;;
60308;SDS011;50313;52.894;6.492;2023-04-07T11:11:41;1.92;;;1.80;;
60308;SDS011;50313;52.894;6.492;2023-04-07T11:21:48;0.60;;;0.60;;
60308;SDS011;50313;52.894;6.492;2023-04-07T11:31:39;1.25;;;1.05;;
60308;SDS011;50313;52.894;6.492;2023-04-07T11:34:08;1.63;;;1.52;;
60308;SDS011;50313;52.894;6.492;2023-04-07T11:36:36;0.95;;;0.82;;
60308;SDS011;50313;52.894;6.492;2023-04-07T11:51:41;2.15;;;1.90;;
60308;SDS011;50313;52.894;6.492;2023-04-07T11:54:40;0.93;;;0.93;;
60308;SDS011;50313;52.894;6.492;2023-04-07T11:57:27;2.75;;;2.47;;
60308;SDS011;50313;52.894;6.492;2023-04-07T12:03:10;2.72;;;2.53;;
60308;SDS011;50313;52.894;6.492;2023-04-07T12:14:13;1.65;;;1.27;;
60308;SDS011;50313;52.894;6.492;2023-04-07T12:25:12;1.48;;;1.38;;
60308;SDS011;50313;52.894;6.492;2023-04-07T12:54:23;6.93;;;2.75;;
60308;SDS011;50313;52.894;6.492;2023-04-07T12:57:17;2.67;;;2.42;;
60308;SDS011;50313;52.894;6.492;2023-04-07T13:00:03;3.83;;;3.03;;
60308;SDS011;50313;52.894;6.492;2023-04-07T13:02:35;4.85;;;2.50;;
60308;SDS011;50313;52.894;6.492;2023-04-07T13:05:07;5.10;;;1.88;;
60308;SDS011;50313;52.894;6.492;2023-04-07T13:07:50;3.90;;;2.90;;
60308;SDS011;50313;52.894;6.492;2023-04-07T13:10:44;6.13;;;2.15;;
60308;SDS011;50313;52.894;6.492;2023-04-07T13:13:25;5.15;;;2.70;;
60308;SDS011;50313;52.894;6.492;2023-04-07T13:16:02;2.50;;;1.55;;
60308;SDS011;50313;52.894;6.492;2023-04-07T13:18:41;3.85;;;2.17;;
60308;SDS011;50313;52.894;6.492;2023-04-07T13:21:20;6.18;;;3.72;;
60308;SDS011;50313;52.894;6.492;2023-04-07T13:27:12;3.58;;;2.03;;
60308;SDS011;50313;52.894;6.492;2023-04-07T13:29:48;3.55;;;2.67;;
60308;SDS011;50313;52.894;6.492;2023-04-07T13:32:35;4.53;;;3.03;;
60308;SDS011;50313;52.894;6.492;2023-04-07T13:38:32;2.75;;;1.83;;
60308;SDS011;50313;52.894;6.492;2023-04-07T13:41:49;2.10;;;1.45;;
60308;SDS011;50313;52.894;6.492;2023-04-07T13:44:36;5.93;;;2.25;;
60308;SDS011;50313;52.894;6.492;2023-04-07T13:47:11;3.40;;;2.42;;
60308;SDS011;50313;52.894;6.492;2023-04-07T13:49:47;2.38;;;1.95;;
60308;SDS011;50313;52.894;6.492;2023-04-07T13:52:21;2.05;;;1.77;;
60308;SDS011;50313;52.894;6.492;2023-04-07T13:55:07;4.10;;;1.60;;
60308;SDS011;50313;52.894;6.492;2023-04-07T13:57:44;3.83;;;2.47;;
60308;SDS011;50313;52.894;6.492;2023-04-07T14:00:15;6.05;;;2.97;;
60308;SDS011;50313;52.894;6.492;2023-04-07T14:02:48;3.05;;;2.08;;
60308;SDS011;50313;52.894;6.492;2023-04-07T14:05:31;6.40;;;1.33;;
60308;SDS011;50313;52.894;6.492;2023-04-07T14:08:46;2.97;;;2.10;;
60308;SDS011;50313;52.894;6.492;2023-04-07T14:12:04;4.65;;;2.97;;
60308;SDS011;50313;52.894;6.492;2023-04-07T14:18:57;6.43;;;2.55;;
60308;SDS011;50313;52.894;6.492;2023-04-07T14:21:52;4.38;;;2.05;;
60308;SDS011;50313;52.894;6.492;2023-04-07T14:24:35;6.30;;;2.08;;
60308;SDS011;50313;52.894;6.492;2023-04-07T14:27:24;4.20;;;2.60;;
60308;SDS011;50313;52.894;6.492;2023-04-07T14:30:17;3.60;;;2.58;;
60308;SDS011;50313;52.894;6.492;2023-04-07T14:33:08;5.38;;;2.85;;
60308;SDS011;50313;52.894;6.492;2023-04-07T14:36:03;8.53;;;4.90;;
60308;SDS011;50313;52.894;6.492;2023-04-07T14:50:03;2.47;;;2.28;;
60308;SDS011;50313;52.894;6.492;2023-04-07T14:52:57;4.35;;;2.67;;
60308;SDS011;50313;52.894;6.492;2023-04-07T14:56:07;4.97;;;3.35;;
60308;SDS011;50313;52.894;6.492;2023-04-07T15:05:06;4.05;;;2.67;;
60308;SDS011;50313;52.894;6.492;2023-04-07T15:07:57;4.68;;;2.97;;
60308;SDS011;50313;52.894;6.492;2023-04-07T15:10:45;11.35;;;3.03;;
60308;SDS011;50313;52.894;6.492;2023-04-07T15:19:50;4.03;;;2.88;;
60308;SDS011;50313;52.894;6.492;2023-04-07T15:22:45;4.10;;;2.20;;
60308;SDS011;50313;52.894;6.492;2023-04-07T15:25:33;5.80;;;3.78;;
60308;SDS011;50313;52.894;6.492;2023-04-07T15:28:22;4.10;;;2.70;;
60308;SDS011;50313;52.894;6.492;2023-04-07T15:31:10;5.20;;;2.47;;
60308;SDS011;50313;52.894;6.492;2023-04-07T15:34:04;4.22;;;2.22;;
60308;SDS011;50313;52.894;6.492;2023-04-07T15:37:00;4.90;;;2.83;;
60308;SDS011;50313;52.894;6.492;2023-04-07T15:39:41;9.65;;;3.63;;
60308;SDS011;50313;52.894;6.492;2023-04-07T15:42:27;11.38;;;3.25;;
60308;SDS011;50313;52.894;6.492;2023-04-07T15:45:04;5.50;;;2.75;;
60308;SDS011;50313;52.894;6.492;2023-04-07T15:50:33;5.55;;;2.75;;
60308;SDS011;50313;52.894;6.492;2023-04-07T15:53:17;3.95;;;3.00;;
60308;SDS011;50313;52.894;6.492;2023-04-07T15:56:09;8.00;;;3.60;;
60308;SDS011;50313;52.894;6.492;2023-04-07T15:58:48;4.65;;;2.83;;
60308;SDS011;50313;52.894;6.492;2023-04-07T16:01:27;4.90;;;2.72;;
60308;SDS011;50313;52.894;6.492;2023-04-07T16:04:14;6.20;;;3.20;;
60308;SDS011;50313;52.894;6.492;2023-04-07T16:07:11;4.10;;;3.08;;
60308;SDS011;50313;52.894;6.492;2023-04-07T16:10:00;5.32;;;3.42;;
60308;SDS011;50313;52.894;6.492;2023-04-07T16:13:01;4.20;;;2.80;;
60308;SDS011;50313;52.894;6.492;2023-04-07T16:16:34;5.53;;;2.63;;
60308;SDS011;50313;52.894;6.492;2023-04-07T16:19:49;7.00;;;3.13;;
60308;SDS011;50313;52.894;6.492;2023-04-07T16:23:07;2.25;;;1.83;;
60308;SDS011;50313;52.894;6.492;2023-04-07T16:26:09;6.78;;;3.35;;
60308;SDS011;50313;52.894;6.492;2023-04-07T16:32:17;5.43;;;2.67;;
60308;SDS011;50313;52.894;6.492;2023-04-07T16:34:59;6.28;;;3.03;;
60308;SDS011;50313;52.894;6.492;2023-04-07T16:37:53;5.50;;;3.25;;
60308;SDS011;50313;52.894;6.492;2023-04-07T16:44:33;8.85;;;3.20;;
60308;SDS011;50313;52.894;6.492;2023-04-07T16:47:31;4.03;;;2.88;;
60308;SDS011;50313;52.894;6.492;2023-04-07T17:03:28;4.05;;;1.70;;
60308;SDS011;50313;52.894;6.492;2023-04-07T17:06:18;4.00;;;2.80;;
60308;SDS011;50313;52.894;6.492;2023-04-07T17:12:09;3.70;;;2.67;;
60308;SDS011;50313;52.894;6.492;2023-04-07T17:14:38;4.70;;;2.45;;
60308;SDS011;50313;52.894;6.492;2023-04-07T17:20:05;4.78;;;2.85;;
60308;SDS011;50313;52.894;6.492;2023-04-07T17:22:34;7.18;;;2.97;;
60308;SDS011;50313;52.894;6.492;2023-04-07T17:25:28;4.88;;;3.10;;
60308;SDS011;50313;52.894;6.492;2023-04-07T17:28:04;2.75;;;2.47;;
60308;SDS011;50313;52.894;6.492;2023-04-07T17:30:40;5.28;;;2.75;;
60308;SDS011;50313;52.894;6.492;2023-04-07T17:33:24;5.15;;;2.15;;
60308;SDS011;50313;52.894;6.492;2023-04-07T17:36:03;4.28;;;2.85;;
60308;SDS011;50313;52.894;6.492;2023-04-07T17:38:56;6.47;;;2.65;;
60308;SDS011;50313;52.894;6.492;2023-04-07T17:41:52;4.60;;;2.75;;
60308;SDS011;50313;52.894;6.492;2023-04-07T17:44:48;2.97;;;2.20;;
60308;SDS011;50313;52.894;6.492;2023-04-07T17:47:28;3.20;;;2.10;;
60308;SDS011;50313;52.894;6.492;2023-04-07T17:50:22;7.80;;;2.88;;
60308;SDS011;50313;52.894;6.492;2023-04-07T19:36:51;2.78;;;2.30;;
60308;SDS011;50313;52.894;6.492;2023-04-07T19:42:36;4.73;;;3.37;;
60308;SDS011;50313;52.894;6.492;2023-04-07T19:45:05;3.00;;;2.75;;
60308;SDS011;50313;52.894;6.492;2023-04-07T19:47:34;4.93;;;2.63;;
60308;SDS011;50313;52.894;6.492;2023-04-07T19:50:15;3.50;;;3.17;;
60308;SDS011;50313;52.894;6.492;2023-04-07T19:52:42;4.55;;;2.92;;
60308;SDS011;50313;52.894;6.492;2023-04-07T19:55:19;6.97;;;5.00;;
60308;SDS011;50313;52.894;6.492;2023-04-07T19:57:58;7.47;;;3.88;;
60308;SDS011;50313;52.894;6.492;2023-04-07T20:00:27;7.53;;;3.55;;
60308;SDS011;50313;52.894;6.492;2023-04-07T20:02:58;9.07;;;3.20;;
60308;SDS011;50313;52.894;6.492;2023-04-07T20:05:27;4.63;;;3.10;;
60308;SDS011;50313;52.894;6.492;2023-04-07T20:07:58;5.90;;;3.55;;
60308;SDS011;50313;52.894;6.492;2023-04-07T20:10:30;6.53;;;3.00;;
60308;SDS011;50313;52.894;6.492;2023-04-07T20:12:56;4.03;;;3.28;;
60308;SDS011;50313;52.894;6.492;2023-04-07T20:15:21;3.40;;;2.47;;
60308;SDS011;50313;52.894;6.492;2023-04-07T20:18:01;3.28;;;2.83;;
60308;SDS011;50313;52.894;6.492;2023-04-07T20:20:27;5.00;;;2.95;;
60308;SDS011;50313;52.894;6.492;2023-04-07T20:22:53;9.40;;;4.07;;
60308;SDS011;50313;52.894;6.492;2023-04-07T20:25:24;6.15;;;3.28;;
60308;SDS011;50313;52.894;6.492;2023-04-07T20:27:52;7.78;;;2.67;;
60308;SDS011;50313;52.894;6.492;2023-04-07T20:30:30;4.45;;;2.08;;
60308;SDS011;50313;52.894;6.492;2023-04-07T20:33:04;5.07;;;3.15;;
60308;SDS011;50313;52.894;6.492;2023-04-07T20:35:32;2.63;;;2.42;;
60308;SDS011;50313;52.894;6.492;2023-04-07T20:37:58;5.57;;;3.67;;
60308;SDS011;50313;52.894;6.492;2023-04-07T20:40:28;5.38;;;3.65;;
60308;SDS011;50313;52.894;6.492;2023-04-07T20:45:30;6.30;;;2.42;;
60308;SDS011;50313;52.894;6.492;2023-04-07T20:48:09;5.53;;;3.63;;
60308;SDS011;50313;52.894;6.492;2023-04-07T20:50:36;5.70;;;3.67;;
60308;SDS011;50313;52.894;6.492;2023-04-07T20:53:02;9.73;;;5.30;;
60308;SDS011;50313;52.894;6.492;2023-04-07T20:55:28;10.15;;;5.70;;
60308;SDS011;50313;52.894;6.492;2023-04-07T20:57:56;11.00;;;5.53;;
60308;SDS011;50313;52.894;6.492;2023-04-07T21:00:40;8.27;;;5.88;;
60308;SDS011;50313;52.894;6.492;2023-04-07T21:03:06;9.10;;;5.45;;
60308;SDS011;50313;52.894;6.492;2023-04-07T21:05:36;11.90;;;5.55;;
60308;SDS011;50313;52.894;6.492;2023-04-07T21:08:12;9.48;;;5.35;;
60308;SDS011;50313;52.894;6.492;2023-04-07T21:10:41;8.90;;;4.83;;
60308;SDS011;50313;52.894;6.492;2023-04-07T21:13:09;8.35;;;4.82;;
60308;SDS011;50313;52.894;6.492;2023-04-07T21:15:38;10.77;;;5.47;;
60308;SDS011;50313;52.894;6.492;2023-04-07T21:18:08;7.45;;;4.75;;
60308;SDS011;50313;52.894;6.492;2023-04-07T21:24:02;12.25;;;5.80;;
60308;SDS011;50313;52.894;6.492;2023-04-07T21:27:57;8.80;;;4.72;;
60308;SDS011;50313;52.894;6.492;2023-04-07T21:34:17;9.65;;;5.50;;
60308;SDS011;50313;52.894;6.492;2023-04-07T21:36:54;9.15;;;5.15;;
60308;SDS011;50313;52.894;6.492;2023-04-07T21:45:58;8.23;;;5.25;;
60308;SDS011;50313;52.894;6.492;2023-04-07T21:48:29;9.15;;;4.85;;
60308;SDS011;50313;52.894;6.492;2023-04-07T21:51:01;11.60;;;5.25;;
60308;SDS011;50313;52.894;6.492;2023-04-07T21:56:34;7.97;;;4.65;;
60308;SDS011;50313;52.894;6.492;2023-04-07T21:59:19;9.63;;;4.97;;
60308;SDS011;50313;52.894;6.492;2023-04-07T22:02:04;10.48;;;4.82;;
60308;SDS011;50313;52.894;6.492;2023-04-07T22:04:51;7.70;;;4.18;;
60308;SDS011;50313;52.894;6.492;2023-04-07T22:07:19;8.43;;;4.63;;
60308;SDS011;50313;52.894;6.492;2023-04-07T22:09:57;8.07;;;4.10;;
60308;SDS011;50313;52.894;6.492;2023-04-07T22:12:23;6.88;;;4.38;;
60308;SDS011;50313;52.894;6.492;2023-04-07T22:14:57;6.95;;;4.25;;
60308;SDS011;50313;52.894;6.492;2023-04-07T22:17:46;7.22;;;3.97;;
60308;SDS011;50313;52.894;6.492;2023-04-07T22:20:12;6.63;;;3.92;;
60308;SDS011;50313;52.894;6.492;2023-04-07T22:22:45;7.05;;;3.78;;
60308;SDS011;50313;52.894;6.492;2023-04-07T22:25:27;8.27;;;4.13;;
60308;SDS011;50313;52.894;6.492;2023-04-07T22:30:41;9.02;;;4.70;;
60308;SDS011;50313;52.894;6.492;2023-04-07T22:33:14;8.40;;;4.55;;
60308;SDS011;50313;52.894;6.492;2023-04-07T22:35:45;10.85;;;4.40;;
60308;SDS011;50313;52.894;6.492;2023-04-07T22:38:11;7.17;;;4.10;;
60308;SDS011;50313;52.894;6.492;2023-04-07T22:40:56;7.53;;;4.38;;
60308;SDS011;50313;52.894;6.492;2023-04-07T22:43:25;7.95;;;4.22;;
60308;SDS011;50313;52.894;6.492;2023-04-07T22:45:56;8.85;;;4.25;;
60308;SDS011;50313;52.894;6.492;2023-04-07T22:48:22;7.38;;;4.22;;
60308;SDS011;50313;52.894;6.492;2023-04-07T22:50:48;6.22;;;3.95;;
60308;SDS011;50313;52.894;6.492;2023-04-07T22:53:22;9.25;;;5.15;;
60308;SDS011;50313;52.894;6.492;2023-04-07T22:56:11;6.00;;;3.72;;
60308;SDS011;50313;52.894;6.492;2023-04-07T22:58:37;8.60;;;3.83;;
60308;SDS011;50313;52.894;6.492;2023-04-07T23:01:02;8.77;;;4.47;;
60308;SDS011;50313;52.894;6.492;2023-04-07T23:03:31;6.97;;;3.60;;
60308;SDS011;50313;52.894;6.492;2023-04-07T23:06:05;11.02;;;4.40;;
60308;SDS011;50313;52.894;6.492;2023-04-07T23:08:33;7.20;;;4.00;;
60308;SDS011;50313;52.894;6.492;2023-04-07T23:11:07;6.70;;;3.58;;
60308;SDS011;50313;52.894;6.492;2023-04-07T23:13:45;7.57;;;3.95;;
60308;SDS011;50313;52.894;6.492;2023-04-07T23:16:13;5.80;;;4.20;;
60308;SDS011;50313;52.894;6.492;2023-04-07T23:18:43;5.97;;;3.88;;
60308;SDS011;50313;52.894;6.492;2023-04-07T23:21:29;6.95;;;3.65;;
60308;SDS011;50313;52.894;6.492;2023-04-07T23:24:04;7.25;;;4.13;;
60308;SDS011;50313;52.894;6.492;2023-04-07T23:26:33;7.25;;;3.83;;